Terminal Aerodrome Forecast
Issued by NWS

Home | Current Version | Previous Version | Text Only | Print | Product List | Glossary On
Versions: 1 2 3 4 5 6 7 8 9 10 11 12 13 14 15
512
FTUS42 KILM 042328
TAFCRE
TAF
KCRE 042328Z 0500/0524 05007KT P6SM -RA OVC050
     FM050300 09007KT 4SM -RA BR SCT010 OVC017
      TEMPO 0506/0508 BKN008
     FM050800 20007KT 2SM RA BR OVC008
     FM051100 28007KT 3SM RA BR OVC005
     FM051300 32006KT P6SM VCSH BKN004 OVC070
     FM051800 35006KT P6SM BKN015 BKN080
     FM052200 04006KT P6SM FEW015 BKN060=

USA.gov is the U.S. government's official web portal to all federal, state and local government web resources and services.